Flight Track Log - Related Links

Times and Time Zones

All times are in EDT time to prevent confusion due to time zone crossing. See the DAL883 flight status page for this flight to view local times or setup timezone preferences in your user account.

Time Position Orientation Groundspeed Altitude Reporting Facility
EDT Latitude Longitude Course Direction KTS MPH feet Rate Location/Type
Wed 02:30:07 AM 33.9311 -118.4511 90° East 185 213 1,700  Level Los Angeles Center
Wed 02:31:07 AM 33.8886 -118.5114 230° Southwest 254 292 2,900 1,934 Climbing Los Angeles Center
Wed 02:32:00 AM 33.7583 -118.6110 132° Southeast  Level FlightAware Approximate
Wed 02:32:08 AM 33.8172 -118.5178 184° South 258 297 5,600  Level Los Angeles Center
Wed 02:33:00 AM 33.6795 -118.4935 101° East  Level FlightAware Approximate
Wed 02:33:08 AM 33.7450 -118.5125 177° South 264 304 7,900  Level Los Angeles Center
Wed 02:34:00 AM 33.6394 -118.3485 116° Southeast  Level FlightAware Approximate
Wed 02:34:09 AM 33.6986 -118.4408 128° Southeast 278 320 10,000  Level Los Angeles Center
Wed 02:35:00 AM 33.6333 -118.1962 90° East  Level FlightAware Approximate
Wed 02:35:34 AM 33.6453 -118.3408 123° Southeast 299 344 11,500  Level Los Angeles Center
Wed 02:36:34 AM 33.6442 -118.2072 91° East 338 389 14,000 1,884 Climbing Los Angeles Center
Wed 02:37:35 AM 33.6444 -118.0653 90° East 353 406 15,300 1,140 Climbing Los Angeles Center
Wed 02:38:35 AM 33.6447 -117.9300 90° East 398 458 16,300 1,240 Climbing Los Angeles Center
Wed 02:39:36 AM 33.6436 -117.7892 91° East 419 482 17,800 1,339 Climbing Los Angeles Center
Wed 02:40:36 AM 33.6428 -117.6475 90° East 426 490 19,000 1,150 Climbing Los Angeles Center
Wed 02:41:36 AM 33.6447 -117.4997 89° East 439 505 20,100 1,190 Climbing Los Angeles Center
Wed 02:42:37 AM 33.6486 -117.3475 88° East 452 520 21,400 1,190 Climbing Los Angeles Center
Wed 02:43:37 AM 33.6508 -117.1958 89° East 456 525 22,500 1,091 Climbing Los Angeles Center
Wed 02:44:38 AM 33.6525 -117.0406 89° East 462 532 23,600 1,041 Climbing Los Angeles Center
Wed 02:45:38 AM 33.6556 -116.8836 89° East 468 539 24,600 843 Climbing Los Angeles Center
Wed 02:46:39 AM 33.6561 -116.7181 90° East 477 549 25,300 744 Climbing Los Angeles Center
Wed 02:47:39 AM 33.6575 -116.5539 89° East 488 562 26,100 800 Climbing Los Angeles Center
Wed 02:48:39 AM 33.6589 -116.3894 89° East 491 565 26,900 793 Climbing Los Angeles Center
Wed 02:49:40 AM 33.6603 -116.2242 89° East 495 570 27,700 793 Climbing Los Angeles Center
Wed 02:50:40 AM 33.6614 -116.0583 89° East 496 571 28,500 893 Climbing Los Angeles Center
Wed 02:51:41 AM 33.6617 -115.8947 90° East 490 564 29,500 1,041 Climbing Los Angeles Center
Wed 02:52:41 AM 33.6633 -115.7339 89° East 483 556 30,600 942 Climbing Los Angeles Center
Wed 02:53:42 AM 33.6647 -115.5742 89° East 478 550 31,400 793 Climbing Los Angeles Center
Wed 02:54:42 AM 33.6633 -115.4131 91° East 481 554 32,200 750 Climbing Los Angeles Center
Wed 02:55:42 AM 33.6633 -115.2567 90° East 472 543 32,900 347 Climbing Los Angeles Center
Wed 02:56:43 AM 33.6633 -115.0989 90° East 470 541 32,900 50 Level Los Angeles Center
Wed 02:57:43 AM 33.6636 -114.9422 90° East 470 541 33,000  Climbing Los Angeles Center
Wed 02:58:44 AM 33.6622 -114.7864 91° East 469 540 32,900 -50 Descending Los Angeles Center
Wed 02:59:44 AM 33.6631 -114.6314 90° East 467 537 32,900 50 Level Los Angeles Center
Wed 03:00:45 AM 33.6611 -114.4758 91° East 467 537 33,000  Climbing Los Angeles Center
Wed 03:01:45 AM 33.6600 -114.3203 90° East 467 537 32,900 -61 Descending Los Angeles Center
Wed 03:02:23 AM 33.6628 -114.2319 88° East 467 537 32,900 61 Level Albuquerque Center
Wed 03:03:23 AM 33.6611 -114.0736 91° East 468 539 33,000 100 Climbing Albuquerque Center
Wed 03:04:23 AM 33.6578 -113.9150 91° East 474 545 33,100  Climbing Albuquerque Center
Wed 03:05:24 AM 33.6567 -113.7586 90° East 472 543 33,000 -50 Descending Albuquerque Center
Wed 03:06:24 AM 33.6508 -113.6039 93° East 470 541 33,000  Level Albuquerque Center
Wed 03:07:24 AM 33.6478 -113.4506 91° East 466 536 33,000  Level Albuquerque Center
Wed 03:08:24 AM 33.6467 -113.3017 90° East 457 526 33,000  Level Albuquerque Center
Wed 03:09:24 AM 33.6478 -113.1519 89° East 453 521 33,000 50 Level Albuquerque Center
Wed 03:10:25 AM 33.6456 -113.0000 91° East 455 524 33,100 -50 Climbing Albuquerque Center
Wed 03:11:25 AM 33.6417 -112.8472 92° East 453 521 32,900 -100 Descending Albuquerque Center
Wed 03:12:25 AM 33.6386 -112.6975 91° East 450 518 32,900 50 Level Albuquerque Center
Wed 03:13:25 AM 33.6356 -112.5228 91° East 447 514 33,000 50 Climbing Albuquerque Center
Wed 03:14:26 AM 33.6319 -112.3714 92° East 455 524 33,000  Level Albuquerque Center
Wed 03:15:26 AM 33.6278 -112.2153 92° East 468 539 33,000  Level Albuquerque Center
Wed 03:16:26 AM 33.6228 -112.0619 92° East 468 539 33,000  Level Albuquerque Center
Wed 03:17:26 AM 33.6194 -111.9094 91° East 465 535 33,000  Level Albuquerque Center
Wed 03:18:26 AM 33.6153 -111.7592 92° East 459 528 33,000  Level Albuquerque Center
Wed 03:19:27 AM 33.6119 -111.6100 91° East 455 524 33,000  Level Albuquerque Center
Wed 03:20:27 AM 33.6064 -111.4606 93° East 453 521 33,000  Level Albuquerque Center
Wed 03:21:27 AM 33.6025 -111.3119 92° East 449 517 33,000  Level Albuquerque Center
Wed 03:22:27 AM 33.5978 -111.1636 92° East 448 516 33,000  Level Albuquerque Center
Wed 03:23:27 AM 33.5928 -111.0150 92° East 449 517 33,000  Level Albuquerque Center
Wed 03:24:28 AM 33.5883 -110.8653 92° East 451 519 33,000 50 Level Albuquerque Center
Wed 03:25:28 AM 33.5822 -110.7133 93° East 455 524 33,100  Climbing Albuquerque Center
Wed 03:26:28 AM 33.5769 -110.5611 92° East 458 527 33,000 -50 Descending Albuquerque Center
Wed 03:27:28 AM 33.5711 -110.4089 93° East 459 528 33,000  Level Albuquerque Center
Wed 03:28:28 AM 33.5644 -110.2381 93° East 459 528 33,000  Level Albuquerque Center
Wed 03:29:29 AM 33.5581 -110.0856 93° East 459 528 33,000  Level Albuquerque Center
Wed 03:30:29 AM 33.5517 -109.9322 93° East 462 532 33,000  Level Albuquerque Center
Wed 03:31:29 AM 33.5447 -109.7778 93° East 462 532 33,000  Level Albuquerque Center
Wed 03:32:29 AM 33.5381 -109.6244 93° East 461 531 33,000  Level Albuquerque Center
Wed 03:33:30 AM 33.5303 -109.4706 93° East 462 532 33,000  Level Albuquerque Center
Wed 03:34:30 AM 33.5239 -109.3114 93° East 471 542 33,000  Level Albuquerque Center
Wed 03:35:30 AM 33.5153 -109.1517 94° East 476 548 33,000  Level Albuquerque Center
Wed 03:36:30 AM 33.5078 -108.9928 93° East 475 547 33,000  Level Albuquerque Center
Wed 03:37:31 AM 33.4992 -108.8339 94° East 476 548 33,000  Level Albuquerque Center
Wed 03:38:31 AM 33.4911 -108.6767 93° East 472 543 33,000  Level Albuquerque Center
Wed 03:39:31 AM 33.4825 -108.5192 94° East 472 543 33,000  Level Albuquerque Center
Wed 03:40:31 AM 33.4731 -108.3631 94° East 470 541 33,000  Level Albuquerque Center
Wed 03:41:31 AM 33.4642 -108.2056 94° East 471 542 33,000  Level Albuquerque Center
Wed 03:42:32 AM 33.4569 -108.0669 94° East 476 548 33,000  Level Albuquerque Center
Wed 03:43:32 AM 33.4472 -107.9106 94° East 473 544 33,000  Level Albuquerque Center
Wed 03:44:32 AM 33.4375 -107.7539 94° East 472 543 33,000  Level Albuquerque Center
Wed 03:45:32 AM 33.4281 -107.5975 94° East 472 543 33,000 -50 Level Albuquerque Center
Wed 03:46:33 AM 33.4178 -107.4419 94° East 469 540 32,900 -50 Descending Albuquerque Center
Wed 03:47:33 AM 33.4078 -107.2878 94° East 464 534 32,900  Level Albuquerque Center
Wed 03:48:33 AM 33.3981 -107.1342 94° East 464 534 32,900 50 Level Albuquerque Center
Wed 03:49:34 AM 33.3883 -106.9822 94° East 460 529 33,000  Climbing Albuquerque Center
Wed 03:50:33 AM 33.3775 -106.8264 95° East 464 534 32,900  Descending Albuquerque Center
Wed 03:51:34 AM 33.3667 -106.6719 95° East 466 536 33,000 50 Climbing Albuquerque Center
Wed 03:52:34 AM 33.3561 -106.5167 95° East 466 536 33,000  Level Albuquerque Center
Wed 03:53:34 AM 33.3444 -106.3617 95° East 467 537 33,000  Level Albuquerque Center
Wed 03:54:34 AM 33.3336 -106.2072 95° East 467 537 33,000 -50 Level Albuquerque Center
Wed 03:55:34 AM 33.3219 -106.0531 95° East 466 536 32,900  Descending Albuquerque Center
Wed 03:56:35 AM 33.3108 -105.8992 95° East 465 535 33,000 50 Climbing Albuquerque Center
Wed 03:57:35 AM 33.2997 -105.7483 95° East 459 528 33,000  Level Albuquerque Center
Wed 03:58:35 AM 33.2869 -105.5814 95° East 458 527 33,000  Level Albuquerque Center
Wed 03:59:35 AM 33.2733 -105.4300 96° East 459 528 33,000  Level Albuquerque Center
Wed 04:00:35 AM 33.2614 -105.2803 95° East 456 525 33,000  Level Albuquerque Center
Wed 04:01:36 AM 33.2481 -105.1303 96° East 456 525 33,000  Level Albuquerque Center
Wed 04:02:36 AM 33.2353 -104.9697 95° East 454 522 33,000  Level Albuquerque Center
Wed 04:03:36 AM 33.2231 -104.8200 96° East 455 524 33,000  Level Albuquerque Center
Wed 04:04:36 AM 33.2092 -104.6717 96° East 454 522 33,000  Level Albuquerque Center
Wed 04:05:36 AM 33.1942 -104.5219 97° East 462 532 33,000  Level Albuquerque Center
Wed 04:06:37 AM 33.1858 -104.3744 94° East 452 520 33,000  Level Albuquerque Center
Wed 04:07:37 AM 33.1736 -104.2275 96° East 449 517 33,000  Level Albuquerque Center
Wed 04:08:37 AM 33.1608 -104.0797 96° East 450 518 33,000  Level Albuquerque Center
Wed 04:09:37 AM 33.1481 -103.9308 96° East 453 521 33,000  Level Albuquerque Center
Wed 04:10:38 AM 33.1336 -103.7836 97° East 450 518 33,000  Level Albuquerque Center
Wed 04:11:38 AM 33.1222 -103.6558 96° East 446 513 33,000  Level Albuquerque Center
Wed 04:12:38 AM 33.1083 -103.5078 96° East 446 513 33,000  Level Albuquerque Center
Wed 04:13:38 AM 33.0939 -103.3597 97° East 448 516 33,000  Level Albuquerque Center
Wed 04:14:38 AM 33.0797 -103.2117 96° East 449 517 33,000  Level Albuquerque Center
Wed 04:15:39 AM 33.0644 -103.0633 97° East 450 518 33,000  Level Albuquerque Center
Wed 04:16:39 AM 33.0503 -102.9139 96° East 451 519 33,000  Level Albuquerque Center
Wed 04:17:39 AM 33.0347 -102.7669 97° East 450 518 33,000  Level Albuquerque Center
Wed 04:18:39 AM 33.0203 -102.6156 96° East 453 521 33,000  Level Albuquerque Center
Wed 04:19:39 AM 33.0044 -102.4658 97° East 453 521 33,000  Level Albuquerque Center
Wed 04:21:06 AM 32.9783 -102.2422 98° East 458 527 33,000  Level Fort Worth Center
Wed 04:22:06 AM 32.9636 -102.0803 96° East 452 520 33,000  Level Fort Worth Center
Wed 04:23:06 AM 32.9497 -101.9461 97° East 452 520 33,000  Level Fort Worth Center
Wed 04:24:06 AM 32.9322 -101.7942 98° East 452 520 33,000  Level Fort Worth Center
Wed 04:25:06 AM 32.9144 -101.6425 98° East 452 520 33,000  Level Fort Worth Center
Wed 04:26:06 AM 32.9003 -101.4983 97° East 447 514 33,000  Level Fort Worth Center
Wed 04:27:06 AM 32.8822 -101.3514 98° East 447 514 33,000  Level Fort Worth Center
Wed 04:28:06 AM 32.8658 -101.2025 97° East 447 514 33,000  Level Fort Worth Center
Wed 04:29:06 AM 32.8494 -101.0533 97° East 447 514 33,000  Level Fort Worth Center
Wed 04:30:06 AM 32.8306 -100.9067 99° East 447 514 33,000  Level Fort Worth Center
Wed 04:31:06 AM 32.8139 -100.7578 98° East 447 514 33,000  Level Fort Worth Center
Wed 04:32:06 AM 32.7967 -100.6089 98° East 452 520 33,000  Level Fort Worth Center
Wed 04:33:06 AM 32.7775 -100.4575 99° East 452 520 33,000  Level Fort Worth Center
Wed 04:34:06 AM 32.7583 -100.2961 98° East 452 520 33,000  Level Fort Worth Center
Wed 04:35:06 AM 32.7408 -100.1450 98° East 452 520 33,000  Level Fort Worth Center
Wed 04:36:06 AM 32.7267 -100.0286 98° East 452 520 33,000  Level Fort Worth Center
Wed 04:37:06 AM 32.7031 -99.8550 99° East 464 534 33,000  Level Fort Worth Center
Wed 04:38:06 AM 32.6831 -99.6964 98° East 472 543 33,000  Level Fort Worth Center
Wed 04:39:06 AM 32.6650 -99.5456 98° East 472 543 33,000  Level Fort Worth Center
Wed 04:40:06 AM 32.6464 -99.3969 98° East 466 536 33,000  Level Fort Worth Center
Wed 04:41:06 AM 32.6258 -99.2436 99° East 466 536 33,000  Level Fort Worth Center
Wed 04:42:06 AM 32.6050 -99.0953 99° East 466 536 33,000  Level Fort Worth Center
Wed 04:43:06 AM 32.5861 -98.9419 98° East 466 536 33,000  Level Fort Worth Center
Wed 04:44:06 AM 32.5647 -98.7939 100° East 466 536 33,000  Level Fort Worth Center
Wed 04:45:06 AM 32.5456 -98.6431 99° East 466 536 33,000  Level Fort Worth Center
Wed 04:46:06 AM 32.5261 -98.4878 98° East 466 536 33,000  Level Fort Worth Center
Wed 04:47:06 AM 32.5022 -98.3247 100° East 466 536 33,000  Level Fort Worth Center
Wed 04:48:06 AM 32.4803 -98.1669 99° East 471 542 33,000  Level Fort Worth Center
Wed 04:49:06 AM 32.4583 -98.0117 99° East 471 542 33,000  Level Fort Worth Center
Wed 04:50:06 AM 32.4381 -97.8564 99° East 477 549 33,000  Level Fort Worth Center
Wed 04:51:06 AM 32.4133 -97.7014 101° East 477 549 33,000  Level Fort Worth Center
Wed 04:52:06 AM 32.3928 -97.5586 100° East 483 556 33,000  Level Fort Worth Center
Wed 04:53:06 AM 32.3700 -97.4036 100° East 483 556 33,000  Level Fort Worth Center
Wed 04:54:06 AM 32.3469 -97.2436 100° East 483 556 33,000  Level Fort Worth Center
Wed 04:55:06 AM 32.3256 -97.0864 99° East 483 556 33,000  Level Fort Worth Center
Wed 04:56:06 AM 32.3022 -96.9317 100° East 483 556 33,000  Level Fort Worth Center
Wed 04:57:06 AM 32.2786 -96.7744 100° East 483 556 33,000  Level Fort Worth Center
Wed 04:58:06 AM 32.2547 -96.6200 100° East 483 556 33,000  Level Fort Worth Center
Wed 04:59:06 AM 32.2306 -96.4653 100° East 483 556 33,000  Level Fort Worth Center
Wed 05:00:06 AM 32.2064 -96.3108 100° East 483 556 33,000  Level Fort Worth Center
Wed 05:01:06 AM 32.1842 -96.1567 100° East 483 556 33,000  Level Fort Worth Center
Wed 05:02:06 AM 32.1575 -96.0022 101° East 483 556 33,000  Level Fort Worth Center
Wed 05:03:06 AM 32.1328 -95.8458 101° East 483 556 33,000  Level Fort Worth Center
Wed 05:04:06 AM 32.1097 -95.6917 100° East 483 556 33,000  Level Fort Worth Center
Wed 05:05:06 AM 32.0844 -95.5278 100° East 478 550 33,000  Level Fort Worth Center
Wed 05:06:06 AM 32.0611 -95.3764 100° East 473 544 33,000  Level Fort Worth Center
Wed 05:07:06 AM 32.0336 -95.2200 102° East 473 544 33,000  Level Fort Worth Center
Wed 05:08:06 AM 32.0097 -95.0639 100° East 478 550 33,000  Level Fort Worth Center
Wed 05:09:06 AM 31.9861 -94.9125 100° East 478 550 33,000  Level Fort Worth Center
Wed 05:10:06 AM 31.9600 -94.7567 101° East 478 550 33,000  Level Fort Worth Center
Wed 05:11:06 AM 31.9336 -94.6031 101° East 483 556 33,000  Level Fort Worth Center
Wed 05:12:06 AM 31.9072 -94.4475 101° East 483 556 33,000  Level Fort Worth Center
Wed 05:13:06 AM 31.8803 -94.2917 101° East 483 556 33,000  Level Fort Worth Center
Wed 05:14:13 AM 31.8533 -94.1431 102° East 480 552 33,000  Level Houston Center
Wed 05:15:13 AM 31.8275 -93.9878 101° East 483 556 33,000  Level Houston Center
Wed 05:16:14 AM 31.8000 -93.8342 102° East 480 552 33,000  Level Houston Center
Wed 05:17:14 AM 31.7706 -93.6678 102° East 481 554 33,000  Level Houston Center
Wed 05:18:14 AM 31.7450 -93.5258 102° East 483 556 33,000  Level Houston Center
Wed 05:19:14 AM 31.7175 -93.3725 102° East 481 554 33,000  Level Houston Center
Wed 05:20:15 AM 31.6897 -93.2150 102° East 477 549 33,000  Level Houston Center
Wed 05:21:15 AM 31.6617 -93.0608 102° East 480 552 33,000  Level Houston Center
Wed 05:22:15 AM 31.6336 -92.9083 102° East 479 551 33,000  Level Houston Center
Wed 05:23:15 AM 31.6061 -92.7564 102° East 476 548 33,000 -50 Level Houston Center
Wed 05:24:16 AM 31.5786 -92.6039 102° East 476 548 32,900 -50 Descending Houston Center
Wed 05:25:16 AM 31.5497 -92.4506 102° East 480 552 32,900  Level Houston Center
Wed 05:26:16 AM 31.5197 -92.2978 103° East 482 555 32,900 50 Level Houston Center
Wed 05:27:16 AM 31.4906 -92.1467 103° East 478 550 33,000 50 Climbing Houston Center
Wed 05:28:17 AM 31.4611 -91.9911 102° East 480 552 33,000  Level Houston Center
Wed 05:29:17 AM 31.4322 -91.8383 102° East 481 554 33,000  Level Houston Center
Wed 05:30:17 AM 31.4025 -91.6869 103° East 477 549 33,000  Level Houston Center
Wed 05:31:17 AM 31.3733 -91.5350 103° East 479 551 33,000  Level Houston Center
Wed 05:32:18 AM 31.3428 -91.3831 103° East 480 552 33,000  Level Houston Center
Wed 05:33:18 AM 31.3133 -91.2331 103° East 476 548 33,000 -50 Level Houston Center
Wed 05:34:18 AM 31.2806 -91.0683 103° East 476 548 32,900 -50 Descending Houston Center
Wed 05:35:18 AM 31.2494 -90.9164 103° East 480 552 32,900 50 Level Houston Center
Wed 05:36:19 AM 31.2183 -90.7658 104° East 479 551 33,000 50 Climbing Houston Center
Wed 05:37:19 AM 31.1883 -90.6136 103° East 480 552 33,000  Level Houston Center
Wed 05:38:19 AM 31.1578 -90.4625 103° East 479 551 33,000 -50 Level Houston Center
Wed 05:39:19 AM 31.1261 -90.3108 104° East 481 554 32,900  Descending Houston Center
Wed 05:40:20 AM 31.0964 -90.1594 103° East 479 551 33,000 50 Climbing Houston Center
Wed 05:41:20 AM 31.0644 -90.0089 104° East 478 550 33,000 -50 Level Houston Center
Wed 05:42:20 AM 31.0333 -89.8581 103° East 477 549 32,900 -50 Descending Houston Center
Wed 05:43:21 AM 31.0019 -89.7069 104° East 478 550 32,900 50 Level Houston Center
Wed 05:44:21 AM 30.9692 -89.5561 104° East 478 550 33,000 50 Climbing Houston Center
Wed 05:45:21 AM 30.9369 -89.4056 104° East 477 549 33,000 -50 Level Houston Center
Wed 05:46:21 AM 30.9050 -89.2553 104° East 477 549 32,900  Descending Houston Center
Wed 05:47:22 AM 30.8711 -89.1022 104° East 483 556 33,000 50 Climbing Houston Center
Wed 05:48:22 AM 30.8381 -88.9519 104° East 479 551 33,000  Level Houston Center
Wed 05:49:22 AM 30.8069 -88.8153 105° East 478 550 33,000  Level Houston Center
Wed 05:50:23 AM 30.7750 -88.6681 104° East 474 545 33,000 -50 Level Houston Center
Wed 05:51:23 AM 30.7392 -88.5058 104° East 475 547 32,900  Descending Houston Center
Wed 05:52:23 AM 30.7067 -88.3575 104° East 474 545 33,000 50 Climbing Houston Center
Wed 05:53:23 AM 30.6775 -88.2286 105° East 474 545 33,000  Level Houston Center
Wed 05:54:24 AM 30.6394 -88.0536 104° East 472 543 33,000  Level Houston Center
Wed 05:55:24 AM 30.6069 -87.9069 104° East 472 543 33,000  Level Houston Center
Wed 05:56:24 AM 30.5739 -87.7617 105° East 470 541 33,000  Level Houston Center
Wed 05:57:24 AM 30.5403 -87.6164 105° East 468 539 33,000  Level Houston Center
Wed 05:58:25 AM 30.5081 -87.4717 104° East 467 537 33,000  Level Houston Center
Wed 05:59:25 AM 30.4731 -87.3269 106° East 468 539 33,000  Level Houston Center
Wed 06:00:30 AM 30.4325 -87.1783 108° East 465 535 33,000  Level Jacksonville Center
Wed 06:01:30 AM 30.3933 -87.0344 107° East 465 535 33,000  Level Jacksonville Center
Wed 06:02:30 AM 30.3525 -86.8786 107° East 465 535 33,000 -50 Level Jacksonville Center
Wed 06:03:30 AM 30.3108 -86.7375 109° East 465 535 32,900 -50 Descending Jacksonville Center
Wed 06:04:30 AM 30.2711 -86.5939 108° East 465 535 32,900 50 Level Jacksonville Center
Wed 06:05:30 AM 30.2314 -86.4506 108° East 465 535 33,000 50 Climbing Jacksonville Center
Wed 06:06:30 AM 30.1936 -86.3075 107° East 465 535 33,000 -50 Level Jacksonville Center
Wed 06:07:30 AM 30.1514 -86.1642 109° East 470 541 32,900  Descending Jacksonville Center
Wed 06:08:30 AM 30.1133 -86.0236 107° East 465 535 33,000 50 Climbing Jacksonville Center
Wed 06:09:30 AM 30.0728 -85.8856 109° East 465 535 33,000 -50 Level Jacksonville Center
Wed 06:10:30 AM 30.0319 -85.7475 109° East 459 528 32,900 -50 Descending Jacksonville Center
Wed 06:11:30 AM 29.9894 -85.6000 108° East 468 539 32,900 50 Level Jacksonville Center
Wed 06:12:30 AM 29.9564 -85.4744 107° East 474 545 33,000 50 Climbing Jacksonville Center
Wed 06:13:30 AM 29.9156 -85.3319 108° East 468 539 33,000  Level Jacksonville Center
Wed 06:14:30 AM 29.8764 -85.1919 108° East 468 539 33,000  Level Jacksonville Center
Wed 06:15:30 AM 29.8369 -85.0522 108° East 468 539 33,000  Level Jacksonville Center
Wed 06:16:30 AM 29.7953 -84.9150 109° East 468 539 33,000 -50 Level Jacksonville Center
Wed 06:17:30 AM 29.7536 -84.7753 109° East 468 539 32,900 -50 Descending Jacksonville Center
Wed 06:18:30 AM 29.7158 -84.6358 107° East 463 533 32,900 50 Level Jacksonville Center
Wed 06:19:30 AM 29.6719 -84.4964 110° East 463 533 33,000 50 Climbing Jacksonville Center
Wed 06:20:30 AM 29.6297 -84.3597 110° East 458 527 33,000  Level Jacksonville Center
Wed 06:21:30 AM 29.5894 -84.2206 108° East 458 527 33,000  Level Jacksonville Center
Wed 06:22:30 AM 29.5469 -84.0839 110° East 458 527 33,000  Level Jacksonville Center
Wed 06:23:30 AM 29.5064 -83.9425 108° East 458 527 33,000  Level Jacksonville Center
Wed 06:24:30 AM 29.4636 -83.8036 109° East 458 527 33,000  Level Jacksonville Center
Wed 06:25:30 AM 29.4208 -83.6650 109° East 463 533 33,000  Level Jacksonville Center
Wed 06:26:30 AM 29.3797 -83.5289 109° East 463 533 33,000 -350 Level Jacksonville Center
Wed 06:27:30 AM 29.3364 -83.3928 110° East 463 533 32,300 -850 Descending Jacksonville Center
Wed 06:28:30 AM 29.2931 -83.2522 109° East 463 533 31,300 -1,000 Descending Jacksonville Center
Wed 06:29:30 AM 29.2517 -83.1139 109° East 463 533 30,300 -1,000 Descending Jacksonville Center
Wed 06:30:30 AM 29.2081 -82.9711 109° East 468 539 29,300 -1,000 Descending Jacksonville Center
Wed 06:31:30 AM 29.1642 -82.8308 110° East 468 539 28,300 -1,950 Descending Jacksonville Center
Wed 06:32:30 AM 29.1181 -82.6739 109° East 468 539 25,400 -2,950 Descending Jacksonville Center
Wed 06:33:30 AM 29.0739 -82.5361 110° East 468 539 22,400 -3,000 Descending Jacksonville Center
Wed 06:34:30 AM 29.0339 -82.4081 110° East 449 517 19,400 -2,850 Descending Jacksonville Center
Wed 06:35:30 AM 28.9936 -82.2825 110° East 433 498 16,700 -2,800 Descending Jacksonville Center
Wed 06:36:30 AM 28.9556 -82.1617 110° East 413 475 13,800 -2,250 Descending Jacksonville Center
Wed 06:37:30 AM 28.9236 -82.0575 109° East 396 456 12,200 -1,250 Descending Jacksonville Center
Wed 06:38:30 AM 28.8936 -81.9606 109° East 357 411 11,300 -700 Descending Jacksonville Center
Wed 06:39:30 AM 28.8575 -81.8756 116° Southeast 319 367 10,800 -660 Descending Jacksonville Center
Wed 06:40:10 AM 28.8333 -81.8167 115° Southeast 282 325 10,200 -1,020 Descending Orlando TRACON
Wed 06:41:10 AM 28.8000 -81.7333 115° Southeast 281 323 9,100 -1,000 Descending Orlando TRACON
Wed 06:42:10 AM 28.7667 -81.6500 115° Southeast 273 314 8,200 -947 Descending Orlando TRACON
Wed 06:43:04 AM 28.7500 -81.5833 106° East 269 310 7,300 -1,000 Descending Orlando TRACON
Wed 06:44:04 AM 28.7167 -81.5000 115° Southeast 272 313 6,300 -700 Descending Orlando TRACON
Wed 06:45:04 AM 28.6833 -81.4333 120° Southeast 268 308 5,900 -700 Descending Orlando TRACON
Wed 06:46:04 AM 28.6333 -81.3667 131° Southeast 272 313 4,900 -1,500 Descending Orlando TRACON
Wed 06:47:04 AM 28.5833 -81.3000 130° Southeast 271 312 2,900 -1,600 Descending Orlando TRACON
Wed 06:48:04 AM 28.5167 -81.2833 168° South 216 249 1,700 -1,000 Descending Orlando TRACON
Wed 06:49:04 AM 28.4833 -81.3000 204° Southwest 140 161 900 -800 Descending Orlando TRACON

Login

Don't have an account? Register now (free) for customized features, flight alerts, and more!